createdAt,value
2022-12-31T00:00:43.466Z,95.20
2022-12-31T00:03:10.491Z,95.10
2022-12-31T00:05:37.652Z,94.70
2022-12-31T00:08:04.510Z,94.70
2022-12-31T00:10:31.229Z,94.70
2022-12-31T00:12:58.106Z,94.90
2022-12-31T00:15:29.464Z,95.00
2022-12-31T00:17:56.271Z,95.10
2022-12-31T00:20:23.141Z,95.10
2022-12-31T00:22:50.154Z,95.40
2022-12-31T00:25:19.761Z,95.40
2022-12-31T00:27:46.493Z,95.70
2022-12-31T00:30:13.912Z,95.70
2022-12-31T00:32:43.605Z,96.10
2022-12-31T00:35:10.343Z,96.20
2022-12-31T00:37:47.606Z,96.40
2022-12-31T00:40:14.749Z,96.10
2022-12-31T00:42:45.999Z,95.80
2022-12-31T00:45:15.599Z,95.80
2022-12-31T00:47:52.809Z,95.80
2022-12-31T00:50:40.756Z,95.70
2022-12-31T00:53:07.544Z,95.90
2022-12-31T00:58:45.614Z,95.80
2022-12-31T01:01:26.296Z,96.00
2022-12-31T01:04:15.654Z,95.90
2022-12-31T01:06:42.808Z,95.90
2022-12-31T01:09:10.200Z,95.90
2022-12-31T01:11:38.287Z,95.80
2022-12-31T01:14:10.471Z,95.90
2022-12-31T01:16:42.227Z,95.90
2022-12-31T01:19:11.238Z,96.00
2022-12-31T01:21:49.032Z,96.10
2022-12-31T01:24:16.455Z,96.20
2022-12-31T01:26:55.572Z,96.20
2022-12-31T01:29:22.408Z,96.30
2022-12-31T01:31:49.292Z,96.30
2022-12-31T01:34:29.267Z,96.20
2022-12-31T01:37:08.910Z,96.10
2022-12-31T01:39:35.700Z,95.90
2022-12-31T01:42:05.292Z,95.80
2022-12-31T01:44:31.937Z,95.80
2022-12-31T01:47:00.754Z,95.80
2022-12-31T01:49:36.105Z,95.70
2022-12-31T01:52:05.024Z,95.60
2022-12-31T01:54:34.272Z,95.60
2022-12-31T01:57:00.981Z,95.50
2022-12-31T01:59:27.694Z,95.50
2022-12-31T02:01:55.009Z,95.50
2022-12-31T02:04:24.909Z,95.60
2022-12-31T02:06:58.348Z,95.50
2022-12-31T02:09:25.247Z,95.40
2022-12-31T02:11:52.140Z,95.20
2022-12-31T02:14:26.912Z,95.20
2022-12-31T02:17:25.955Z,95.20
2022-12-31T02:20:10.668Z,95.40
2022-12-31T02:23:14.849Z,95.60
2022-12-31T02:26:18.511Z,95.70
2022-12-31T02:29:00.573Z,95.80
2022-12-31T02:31:36.593Z,95.80
2022-12-31T02:34:24.099Z,95.90
2022-12-31T02:36:53.341Z,95.80
2022-12-31T02:39:20.137Z,95.80
2022-12-31T02:41:50.315Z,95.70
2022-12-31T02:44:24.323Z,95.70
2022-12-31T02:47:05.537Z,95.70
2022-12-31T02:49:53.061Z,95.80
2022-12-31T02:52:44.375Z,95.80
2022-12-31T02:55:20.126Z,95.80
2022-12-31T02:58:12.566Z,95.80
2022-12-31T03:00:51.407Z,95.90
2022-12-31T03:03:19.339Z,96.00
2022-12-31T03:05:46.082Z,95.90
2022-12-31T03:08:16.062Z,96.10
2022-12-31T03:10:42.770Z,96.10
2022-12-31T03:13:12.554Z,96.10
2022-12-31T03:15:39.276Z,96.10
2022-12-31T03:18:12.987Z,96.10
2022-12-31T03:20:44.949Z,96.10
2022-12-31T03:23:12.925Z,96.20
2022-12-31T03:25:39.972Z,96.20
2022-12-31T03:28:13.676Z,96.20
2022-12-31T03:30:42.801Z,96.30
2022-12-31T03:33:09.683Z,96.40
2022-12-31T03:35:40.556Z,96.40
2022-12-31T03:38:07.477Z,96.40
2022-12-31T03:40:38.172Z,96.40
2022-12-31T03:43:04.871Z,96.50
2022-12-31T03:45:33.732Z,96.50
2022-12-31T03:48:03.724Z,96.50
2022-12-31T03:50:30.620Z,96.40
2022-12-31T03:52:57.396Z,96.50
2022-12-31T03:55:25.553Z,96.50
2022-12-31T03:57:52.372Z,96.60
2022-12-31T04:00:23.363Z,96.60
2022-12-31T04:02:50.309Z,96.60
2022-12-31T04:05:17.414Z,96.70
2022-12-31T04:07:44.417Z,96.70
2022-12-31T04:10:12.370Z,96.60
2022-12-31T04:12:39.291Z,96.60
2022-12-31T04:15:07.081Z,96.60
2022-12-31T04:17:33.928Z,96.60
2022-12-31T04:20:02.162Z,96.60
2022-12-31T04:22:28.991Z,96.70
2022-12-31T04:24:55.900Z,96.90
2022-12-31T04:27:22.888Z,96.90
2022-12-31T04:29:49.648Z,97.40
2022-12-31T04:32:16.715Z,97.50
2022-12-31T04:34:43.484Z,97.50
2022-12-31T04:37:10.269Z,97.60
2022-12-31T04:39:36.948Z,97.70
2022-12-31T04:42:03.704Z,97.40
2022-12-31T04:44:30.325Z,97.70
2022-12-31T04:46:56.998Z,97.60
2022-12-31T04:49:23.605Z,97.60
2022-12-31T04:51:50.249Z,97.60
2022-12-31T04:54:16.954Z,97.50
2022-12-31T04:56:43.631Z,97.50
2022-12-31T04:59:10.389Z,97.50
2022-12-31T05:01:37.142Z,97.50
2022-12-31T05:04:03.956Z,97.50
2022-12-31T05:06:30.652Z,97.50
2022-12-31T05:08:57.327Z,97.40
2022-12-31T05:11:24.130Z,97.30
2022-12-31T05:13:50.814Z,97.30
2022-12-31T05:16:17.585Z,97.30
2022-12-31T05:18:44.294Z,97.30
2022-12-31T05:21:11.429Z,97.30
2022-12-31T05:23:38.323Z,97.80
2022-12-31T05:26:05.205Z,98.00
2022-12-31T05:28:31.974Z,98.10
2022-12-31T05:30:58.849Z,98.10
2022-12-31T05:33:25.516Z,98.40
2022-12-31T05:35:52.316Z,98.70
2022-12-31T05:38:23.566Z,99.00
2022-12-31T05:40:50.400Z,99.30
2022-12-31T05:43:17.906Z,99.30
2022-12-31T05:45:44.808Z,99.60
2022-12-31T05:48:11.416Z,99.70
2022-12-31T05:50:38.111Z,99.40
2022-12-31T05:53:04.789Z,99.50
2022-12-31T05:55:31.581Z,99.30
2022-12-31T05:57:58.265Z,99.60
2022-12-31T06:00:24.996Z,99.30
2022-12-31T06:02:51.807Z,99.40
2022-12-31T06:05:24.180Z,99.70
2022-12-31T06:07:52.747Z,99.80
2022-12-31T06:10:19.513Z,99.90
2022-12-31T06:12:46.223Z,99.90
2022-12-31T06:15:12.902Z,99.70
2022-12-31T06:17:39.578Z,99.60
2022-12-31T06:20:12.350Z,99.60
2022-12-31T06:22:43.006Z,99.60
2022-12-31T06:25:10.085Z,99.60
2022-12-31T06:27:36.799Z,99.30
2022-12-31T06:30:03.921Z,99.00
2022-12-31T06:32:30.995Z,99.20
2022-12-31T06:34:58.019Z,99.30
2022-12-31T06:37:25.217Z,99.20
2022-12-31T06:39:51.852Z,99.30
2022-12-31T06:42:18.702Z,99.20
2022-12-31T06:44:46.112Z,99.10
2022-12-31T06:47:13.748Z,98.90
2022-12-31T06:49:41.233Z,98.90
2022-12-31T06:52:07.941Z,98.90
2022-12-31T06:54:35.956Z,99.10
2022-12-31T06:57:03.299Z,99.30
2022-12-31T06:59:30.160Z,99.30
2022-12-31T07:02:18.443Z,99.30
2022-12-31T07:05:04.092Z,99.30
2022-12-31T07:07:37.778Z,99.40
2022-12-31T07:10:32.383Z,99.30
2022-12-31T07:13:20.821Z,99.10
2022-12-31T07:16:03.834Z,99.00
2022-12-31T07:18:44.295Z,98.90
2022-12-31T07:21:16.217Z,98.80
2022-12-31T07:23:43.664Z,98.60
2022-12-31T07:26:42.352Z,98.30
2022-12-31T07:29:31.075Z,96.90
2022-12-31T07:32:08.311Z,96.50
2022-12-31T07:34:41.541Z,96.80
2022-12-31T07:37:44.729Z,97.40
2022-12-31T07:40:21.702Z,97.80
2022-12-31T07:43:15.259Z,98.40
2022-12-31T07:45:45.815Z,98.60
2022-12-31T07:48:28.409Z,98.70
2022-12-31T07:50:56.076Z,98.70
2022-12-31T07:53:23.770Z,98.90
2022-12-31T07:55:58.116Z,99.60
2022-12-31T07:58:37.242Z,99.90
2022-12-31T08:01:04.399Z,99.90
2022-12-31T08:03:31.383Z,99.90
2022-12-31T08:06:11.193Z,99.80
2022-12-31T08:08:43.807Z,99.80
2022-12-31T08:11:16.347Z,99.90
2022-12-31T08:13:43.410Z,99.90
2022-12-31T08:16:13.256Z,99.50
2022-12-31T08:18:40.520Z,99.00
2022-12-31T08:21:34.969Z,98.20
2022-12-31T08:24:17.475Z,97.60
2022-12-31T08:27:05.326Z,97.20
2022-12-31T08:29:42.874Z,97.10
2022-12-31T08:32:23.857Z,96.50
2022-12-31T08:48:52.152Z,95.90
2022-12-31T08:51:22.849Z,96.00
2022-12-31T08:53:53.219Z,96.20
2022-12-31T08:56:28.804Z,96.00
2022-12-31T08:59:30.044Z,95.70
2022-12-31T09:02:48.182Z,96.10
2022-12-31T09:05:38.374Z,94.70
2022-12-31T09:08:38.312Z,95.40
2022-12-31T09:11:22.623Z,95.40
2022-12-31T09:13:56.332Z,95.40
2022-12-31T09:16:45.001Z,95.80
2022-12-31T09:19:12.170Z,96.00
2022-12-31T09:21:41.650Z,96.40
2022-12-31T09:24:10.349Z,96.50
2022-12-31T09:27:01.638Z,96.40
2022-12-31T09:30:05.769Z,96.60
2022-12-31T09:32:44.392Z,96.60
2022-12-31T09:35:30.058Z,96.60
2022-12-31T09:38:11.224Z,96.60
2022-12-31T09:41:00.388Z,96.50
2022-12-31T09:44:05.392Z,96.30
2022-12-31T09:46:56.459Z,96.00
2022-12-31T09:49:47.069Z,96.10
2022-12-31T09:52:30.014Z,96.10
2022-12-31T09:55:18.531Z,96.00
2022-12-31T09:57:54.198Z,95.90
2022-12-31T10:00:21.614Z,96.00
2022-12-31T10:03:16.316Z,95.90
2022-12-31T10:06:05.411Z,95.70
2022-12-31T10:08:44.256Z,95.50
2022-12-31T10:11:19.646Z,95.40
2022-12-31T10:14:02.807Z,95.20
2022-12-31T10:16:36.696Z,94.80
2022-12-31T10:19:29.381Z,94.30
2022-12-31T10:22:02.236Z,93.40
2022-12-31T10:24:49.988Z,94.20
2022-12-31T10:27:48.784Z,94.10
2022-12-31T10:30:17.616Z,93.80
2022-12-31T10:32:45.441Z,93.00
2022-12-31T10:35:15.050Z,92.70
2022-12-31T10:37:47.919Z,92.90
2022-12-31T10:40:42.260Z,90.40
2022-12-31T10:43:34.538Z,91.10
2022-12-31T10:46:25.206Z,89.40
2022-12-31T10:49:21.130Z,90.00
2022-12-31T10:52:06.703Z,90.10
2022-12-31T10:55:06.188Z,89.20
2022-12-31T10:58:10.365Z,89.10
2022-12-31T11:00:59.016Z,89.20
2022-12-31T11:03:37.880Z,88.80
2022-12-31T11:06:23.735Z,89.10
2022-12-31T11:09:11.150Z,89.40
2022-12-31T11:11:57.280Z,89.40
2022-12-31T11:14:49.720Z,89.10
2022-12-31T11:17:28.584Z,88.40
2022-12-31T11:20:01.226Z,88.00
2022-12-31T11:22:43.737Z,87.60
2022-12-31T11:25:28.213Z,88.10
2022-12-31T11:28:01.724Z,88.30
2022-12-31T11:30:47.289Z,88.90
2022-12-31T11:33:24.649Z,89.50
2022-12-31T11:36:26.613Z,90.00
2022-12-31T11:39:01.629Z,90.30
2022-12-31T11:41:33.740Z,90.40
2022-12-31T11:44:19.281Z,90.40
2022-12-31T11:46:58.015Z,90.70
2022-12-31T11:49:52.359Z,90.80
2022-12-31T11:52:37.592Z,91.30
2022-12-31T11:55:33.965Z,91.90
2022-12-31T11:58:08.762Z,91.80
2022-12-31T12:00:36.177Z,91.80
2022-12-31T12:03:05.162Z,91.90
2022-12-31T12:05:32.310Z,92.00
2022-12-31T12:07:59.051Z,92.10
2022-12-31T12:10:35.591Z,92.00
2022-12-31T12:13:11.364Z,92.00
2022-12-31T12:15:38.022Z,92.00
2022-12-31T12:18:10.552Z,92.00
2022-12-31T12:20:38.737Z,91.90
2022-12-31T12:23:24.413Z,92.00
2022-12-31T12:25:51.345Z,92.00
2022-12-31T12:28:30.004Z,92.00
2022-12-31T12:31:00.400Z,91.80
2022-12-31T12:33:28.790Z,91.90
2022-12-31T12:36:10.041Z,91.90
2022-12-31T12:38:37.280Z,91.70
2022-12-31T12:41:05.872Z,91.80
2022-12-31T12:43:35.103Z,91.60
2022-12-31T12:46:16.375Z,91.60
2022-12-31T12:48:45.256Z,91.40
2022-12-31T12:51:27.408Z,91.20
2022-12-31T12:54:17.120Z,91.10
2022-12-31T12:57:10.090Z,91.20
2022-12-31T12:59:56.378Z,91.10
2022-12-31T13:02:46.723Z,91.00
2022-12-31T13:05:37.990Z,90.60
2022-12-31T13:08:33.110Z,90.10
2022-12-31T13:11:03.272Z,90.00
2022-12-31T13:14:00.505Z,90.10
2022-12-31T13:16:59.888Z,89.80
2022-12-31T13:19:52.400Z,89.50
2022-12-31T13:22:33.235Z,87.60
2022-12-31T13:25:27.726Z,88.20
2022-12-31T13:27:55.691Z,87.40
2022-12-31T13:30:32.309Z,85.80
2022-12-31T13:33:05.355Z,86.40
2022-12-31T13:35:43.717Z,86.20
2022-12-31T13:38:15.373Z,84.90
2022-12-31T13:40:50.185Z,85.40
2022-12-31T13:43:37.925Z,84.50
2022-12-31T13:46:14.970Z,84.20
2022-12-31T13:49:01.869Z,83.70
2022-12-31T13:51:45.178Z,84.00
2022-12-31T13:54:38.604Z,84.20
2022-12-31T13:57:10.573Z,82.80
2022-12-31T13:59:39.423Z,83.50
2022-12-31T14:02:38.011Z,83.20
2022-12-31T14:05:23.321Z,82.60
2022-12-31T14:07:54.647Z,82.70
2022-12-31T14:10:45.115Z,83.20
2022-12-31T14:13:43.876Z,83.80
2022-12-31T14:16:43.160Z,83.40
2022-12-31T14:19:19.293Z,81.90
2022-12-31T14:22:00.155Z,83.40
2022-12-31T14:24:37.416Z,83.10
2022-12-31T14:27:08.392Z,83.00
2022-12-31T14:29:46.167Z,82.70
2022-12-31T14:32:19.533Z,82.30
2022-12-31T14:35:03.325Z,82.10
2022-12-31T14:37:42.374Z,81.60
2022-12-31T14:40:18.861Z,81.00
2022-12-31T14:43:05.757Z,79.90
2022-12-31T14:45:33.074Z,78.60
2022-12-31T14:48:40.841Z,79.60
2022-12-31T14:51:07.542Z,78.60
2022-12-31T14:53:34.732Z,79.00
2022-12-31T14:56:02.731Z,79.20
2022-12-31T14:58:53.997Z,79.20
2022-12-31T15:01:20.876Z,79.40
2022-12-31T15:03:51.393Z,79.50
2022-12-31T15:06:24.139Z,79.10
2022-12-31T15:09:07.909Z,78.90
2022-12-31T15:12:03.943Z,78.60
2022-12-31T15:14:55.497Z,77.80
2022-12-31T15:17:44.061Z,77.50
2022-12-31T15:20:19.596Z,78.00
2022-12-31T15:22:50.127Z,78.10
2022-12-31T15:25:40.835Z,78.30
2022-12-31T15:28:23.019Z,77.90
2022-12-31T15:30:50.791Z,78.30
2022-12-31T15:33:33.125Z,77.90
2022-12-31T15:36:30.582Z,77.60
2022-12-31T15:39:10.470Z,76.30
2022-12-31T15:41:46.163Z,75.90
2022-12-31T15:44:38.047Z,75.70
2022-12-31T15:47:25.214Z,74.90
2022-12-31T15:49:51.918Z,74.20
2022-12-31T15:52:22.418Z,74.90
2022-12-31T15:54:50.894Z,74.70
2022-12-31T15:57:39.112Z,74.50
2022-12-31T16:00:17.344Z,74.30
2022-12-31T16:02:44.962Z,73.70
2022-12-31T16:05:38.363Z,73.50
2022-12-31T16:08:05.675Z,72.70
2022-12-31T16:10:33.883Z,72.30
2022-12-31T16:13:01.755Z,71.80
2022-12-31T16:15:31.672Z,72.00
2022-12-31T16:18:00.710Z,71.50
2022-12-31T16:20:33.608Z,71.50
2022-12-31T16:23:02.145Z,71.50
2022-12-31T16:25:31.974Z,71.90
2022-12-31T16:27:59.778Z,72.10
2022-12-31T16:30:28.155Z,72.40
2022-12-31T16:32:59.751Z,72.40
2022-12-31T16:35:28.666Z,72.30
2022-12-31T16:38:12.203Z,72.50
2022-12-31T16:40:39.656Z,72.50
2022-12-31T16:43:21.557Z,72.20
2022-12-31T16:45:48.757Z,71.40
2022-12-31T16:48:17.157Z,71.70
2022-12-31T16:50:49.763Z,71.50
2022-12-31T16:53:19.541Z,71.30
2022-12-31T16:56:02.880Z,71.30
2022-12-31T16:58:33.648Z,69.90
2022-12-31T17:01:12.404Z,70.20
2022-12-31T17:03:40.053Z,69.80
2022-12-31T17:06:06.859Z,69.90
2022-12-31T17:08:55.644Z,69.90
2022-12-31T17:11:34.902Z,69.00
2022-12-31T17:14:09.036Z,69.30
2022-12-31T17:16:42.719Z,69.30
2022-12-31T17:19:40.927Z,68.80
2022-12-31T17:22:36.714Z,67.30
2022-12-31T17:25:08.959Z,65.90
2022-12-31T17:27:36.438Z,67.00
2022-12-31T17:30:41.619Z,67.00
2022-12-31T17:33:14.664Z,66.40
2022-12-31T17:35:42.861Z,67.20
2022-12-31T17:38:21.792Z,67.50
2022-12-31T17:40:51.588Z,67.00
2022-12-31T17:43:20.151Z,67.30
2022-12-31T17:45:47.497Z,67.30
2022-12-31T17:48:17.610Z,66.80
2022-12-31T17:50:58.389Z,66.70
2022-12-31T17:53:25.554Z,66.60
2022-12-31T17:55:53.416Z,66.40
2022-12-31T17:58:35.205Z,65.90
2022-12-31T18:01:02.977Z,65.30
2022-12-31T18:03:29.812Z,64.80
2022-12-31T18:05:56.478Z,65.70
2022-12-31T18:08:23.685Z,65.40
2022-12-31T18:10:52.250Z,65.00
2022-12-31T18:13:24.055Z,65.00
2022-12-31T18:15:51.006Z,64.80
2022-12-31T18:18:24.733Z,64.80
2022-12-31T18:21:00.382Z,64.70
2022-12-31T18:23:29.153Z,64.80
2022-12-31T18:25:55.939Z,64.30
2022-12-31T18:28:23.272Z,64.10
2022-12-31T18:30:53.364Z,64.10
2022-12-31T18:33:20.205Z,63.70
2022-12-31T18:36:08.227Z,64.00
2022-12-31T18:38:33.634Z,63.80
2022-12-31T18:41:00.363Z,63.60
2022-12-31T18:43:27.218Z,63.50
2022-12-31T18:45:54.443Z,63.80
2022-12-31T18:48:21.063Z,63.70
2022-12-31T18:50:47.709Z,63.40
2022-12-31T18:53:19.741Z,63.70
2022-12-31T18:55:51.862Z,63.70
2022-12-31T18:58:19.750Z,63.70
2022-12-31T19:01:41.530Z,63.60
2022-12-31T19:03:48.279Z,62.60
2022-12-31T19:06:18.659Z,63.20
2022-12-31T19:08:45.444Z,63.20
2022-12-31T19:11:14.400Z,63.10
2022-12-31T19:13:41.448Z,63.20
2022-12-31T19:16:09.629Z,63.00
2022-12-31T19:18:36.395Z,62.90
2022-12-31T19:21:03.449Z,63.00
2022-12-31T19:23:30.104Z,62.80
2022-12-31T19:25:56.792Z,62.40
2022-12-31T19:28:24.907Z,62.30
2022-12-31T19:30:51.660Z,62.30
2022-12-31T19:33:18.456Z,62.20
2022-12-31T19:35:45.309Z,62.30
2022-12-31T19:38:19.379Z,62.00
2022-12-31T19:40:46.296Z,62.20
2022-12-31T19:43:14.174Z,62.00
2022-12-31T19:45:41.933Z,61.80
2022-12-31T19:48:12.841Z,62.00
2022-12-31T19:50:43.852Z,61.30
2022-12-31T19:53:12.573Z,61.50
2022-12-31T19:55:39.603Z,61.10
2022-12-31T19:58:06.595Z,60.40
2022-12-31T20:00:33.688Z,60.90
2022-12-31T20:03:01.045Z,61.10
2022-12-31T20:05:28.147Z,61.30
2022-12-31T20:07:54.745Z,61.20
2022-12-31T20:10:21.734Z,61.40
2022-12-31T20:12:49.129Z,61.30
2022-12-31T20:15:15.867Z,61.20
2022-12-31T20:17:42.717Z,61.30
2022-12-31T20:20:11.668Z,60.70
2022-12-31T20:22:39.062Z,60.70
2022-12-31T20:25:06.607Z,60.80
2022-12-31T20:27:33.865Z,61.10
2022-12-31T20:30:04.463Z,60.70
2022-12-31T20:32:31.248Z,60.70
2022-12-31T20:34:57.923Z,60.70
2022-12-31T20:37:25.067Z,60.40
2022-12-31T20:39:51.872Z,60.60
2022-12-31T20:42:18.501Z,60.50
2022-12-31T20:44:45.852Z,60.50
2022-12-31T20:47:12.842Z,60.40
2022-12-31T20:50:09.869Z,60.20
2022-12-31T20:52:26.175Z,60.30
2022-12-31T20:54:53.754Z,60.50
2022-12-31T20:57:20.626Z,60.40
2022-12-31T20:59:49.853Z,60.60
2022-12-31T21:02:21.282Z,60.60
2022-12-31T21:04:49.486Z,60.50
2022-12-31T21:07:16.855Z,60.50
2022-12-31T21:09:44.126Z,60.30
2022-12-31T21:12:13.612Z,60.60
2022-12-31T21:14:44.873Z,60.70
2022-12-31T21:17:11.833Z,60.80
2022-12-31T21:19:39.288Z,60.90
2022-12-31T21:22:06.543Z,60.60
2022-12-31T21:24:33.673Z,60.50
2022-12-31T21:27:00.471Z,60.70
2022-12-31T21:29:32.636Z,60.80
2022-12-31T21:32:01.661Z,60.60
2022-12-31T21:34:28.397Z,60.40
2022-12-31T21:36:55.677Z,60.60
2022-12-31T21:39:22.925Z,60.80
2022-12-31T21:41:50.850Z,60.70
2022-12-31T21:44:19.976Z,60.00
2022-12-31T21:47:33.466Z,60.50
2022-12-31T21:49:41.191Z,60.60
2022-12-31T21:52:08.589Z,60.50
2022-12-31T21:54:35.760Z,60.70
2022-12-31T21:57:04.013Z,60.40
2022-12-31T21:59:30.961Z,60.30
2022-12-31T22:01:57.657Z,60.30
2022-12-31T22:05:00.203Z,59.90
2022-12-31T22:07:10.970Z,59.90
2022-12-31T22:09:37.607Z,60.00
2022-12-31T22:12:04.521Z,60.20
2022-12-31T22:14:31.136Z,60.30
2022-12-31T22:16:57.891Z,60.40
2022-12-31T22:19:25.391Z,60.30
2022-12-31T22:21:52.600Z,60.50
2022-12-31T22:24:19.653Z,60.50
2022-12-31T22:26:47.039Z,60.60
2022-12-31T22:29:14.257Z,60.30
2022-12-31T22:31:41.241Z,60.10
2022-12-31T22:34:08.257Z,60.10
2022-12-31T22:36:35.390Z,60.10
2022-12-31T22:39:02.612Z,60.10
2022-12-31T22:41:29.586Z,60.10
2022-12-31T22:44:03.213Z,60.00
2022-12-31T22:46:31.407Z,60.10
2022-12-31T22:48:58.839Z,60.00
2022-12-31T22:51:28.196Z,60.20
2022-12-31T22:54:12.906Z,60.20
2022-12-31T22:56:39.932Z,60.30
2022-12-31T22:59:06.609Z,60.20
2022-12-31T23:01:33.388Z,60.10
2022-12-31T23:04:00.175Z,60.30
2022-12-31T23:06:27.175Z,60.30
2022-12-31T23:08:54.141Z,60.20
2022-12-31T23:11:20.904Z,60.30
2022-12-31T23:13:51.086Z,60.30
2022-12-31T23:16:18.809Z,60.20
2022-12-31T23:18:45.597Z,60.20
2022-12-31T23:21:12.641Z,60.30
2022-12-31T23:23:39.324Z,60.50
2022-12-31T23:26:05.948Z,60.20
2022-12-31T23:28:32.625Z,60.30
2022-12-31T23:30:59.442Z,60.10
2022-12-31T23:33:26.276Z,60.10
2022-12-31T23:36:05.718Z,60.30
2022-12-31T23:38:32.498Z,60.20
2022-12-31T23:40:59.879Z,60.30
2022-12-31T23:43:28.246Z,60.00
2022-12-31T23:45:54.968Z,60.20
2022-12-31T23:48:22.037Z,60.20
2022-12-31T23:50:53.384Z,60.20
2022-12-31T23:53:24.087Z,60.50
2022-12-31T23:55:51.829Z,60.30
2022-12-31T23:58:18.731Z,60.50
